sensor_id;sensor_type;location;lat;lon;timestamp;temperature;humidity
2389;DHT22;1205;47.984;7.668;2023-04-01T00:00:42;9.60;99.90
2389;DHT22;1205;47.984;7.668;2023-04-01T00:03:09;9.60;99.90
2389;DHT22;1205;47.984;7.668;2023-04-01T00:05:35;9.60;99.90
2389;DHT22;1205;47.984;7.668;2023-04-01T00:08:00;9.50;99.90
2389;DHT22;1205;47.984;7.668;2023-04-01T00:10:26;9.40;99.90
2389;DHT22;1205;47.984;7.668;2023-04-01T00:12:51;9.40;99.90
2389;DHT22;1205;47.984;7.668;2023-04-01T00:15:17;9.30;99.90
2389;DHT22;1205;47.984;7.668;2023-04-01T00:17:43;9.30;99.90
2389;DHT22;1205;47.984;7.668;2023-04-01T00:20:09;9.30;99.90
2389;DHT22;1205;47.984;7.668;2023-04-01T00:22:35;9.30;99.90
2389;DHT22;1205;47.984;7.668;2023-04-01T00:25:01;9.30;99.90
2389;DHT22;1205;47.984;7.668;2023-04-01T00:27:26;9.30;99.90
2389;DHT22;1205;47.984;7.668;2023-04-01T00:29:52;9.30;99.90
2389;DHT22;1205;47.984;7.668;2023-04-01T00:32:17;9.40;99.90
2389;DHT22;1205;47.984;7.668;2023-04-01T00:34:43;9.30;99.90
2389;DHT22;1205;47.984;7.668;2023-04-01T00:37:09;9.30;99.90
2389;DHT22;1205;47.984;7.668;2023-04-01T00:39:35;9.20;99.90
2389;DHT22;1205;47.984;7.668;2023-04-01T00:42:02;9.20;99.90
2389;DHT22;1205;47.984;7.668;2023-04-01T00:44:31;9.10;99.90
2389;DHT22;1205;47.984;7.668;2023-04-01T00:46:58;9.30;99.90
2389;DHT22;1205;47.984;7.668;2023-04-01T00:49:27;9.20;99.90
2389;DHT22;1205;47.984;7.668;2023-04-01T00:51:55;9.20;99.90
2389;DHT22;1205;47.984;7.668;2023-04-01T00:54:24;9.20;99.90
2389;DHT22;1205;47.984;7.668;2023-04-01T00:57:00;9.20;99.90
2389;DHT22;1205;47.984;7.668;2023-04-01T00:59:34;9.30;99.90
2389;DHT22;1205;47.984;7.668;2023-04-01T01:02:03;9.30;99.90
2389;DHT22;1205;47.984;7.668;2023-04-01T01:04:32;9.30;99.90
2389;DHT22;1205;47.984;7.668;2023-04-01T01:07:35;9.40;99.90
2389;DHT22;1205;47.984;7.668;2023-04-01T01:15:44;9.30;99.90
2389;DHT22;1205;47.984;7.668;2023-04-01T01:18:34;9.20;99.90
2389;DHT22;1205;47.984;7.668;2023-04-01T01:24:09;9.20;99.90
2389;DHT22;1205;47.984;7.668;2023-04-01T01:37:19;9.30;99.90
2389;DHT22;1205;47.984;7.668;2023-04-01T01:39:51;9.20;99.90
2389;DHT22;1205;47.984;7.668;2023-04-01T01:42:20;9.20;99.90
2389;DHT22;1205;47.984;7.668;2023-04-01T01:44:50;9.30;99.90
2389;DHT22;1205;47.984;7.668;2023-04-01T01:47:17;9.30;99.90
2389;DHT22;1205;47.984;7.668;2023-04-01T01:49:44;9.30;99.90
2389;DHT22;1205;47.984;7.668;2023-04-01T01:52:12;9.20;99.90
2389;DHT22;1205;47.984;7.668;2023-04-01T01:54:48;9.20;99.90
2389;DHT22;1205;47.984;7.668;2023-04-01T01:57:14;9.30;99.90
2389;DHT22;1205;47.984;7.668;2023-04-01T01:59:41;9.30;99.90
2389;DHT22;1205;47.984;7.668;2023-04-01T02:02:08;9.30;99.90
2389;DHT22;1205;47.984;7.668;2023-04-01T02:04:37;9.40;99.90
2389;DHT22;1205;47.984;7.668;2023-04-01T02:07:08;9.40;99.90
2389;DHT22;1205;47.984;7.668;2023-04-01T02:09:36;9.40;99.90
2389;DHT22;1205;47.984;7.668;2023-04-01T02:12:08;9.40;99.90
2389;DHT22;1205;47.984;7.668;2023-04-01T02:14:46;9.30;99.90
2389;DHT22;1205;47.984;7.668;2023-04-01T02:17:16;9.40;99.90
2389;DHT22;1205;47.984;7.668;2023-04-01T02:19:50;9.40;99.90
2389;DHT22;1205;47.984;7.668;2023-04-01T02:22:22;9.40;99.90
2389;DHT22;1205;47.984;7.668;2023-04-01T02:24:52;9.40;99.90
2389;DHT22;1205;47.984;7.668;2023-04-01T02:27:19;9.40;99.90
2389;DHT22;1205;47.984;7.668;2023-04-01T02:29:45;9.30;99.90
2389;DHT22;1205;47.984;7.668;2023-04-01T02:32:13;9.30;99.90
2389;DHT22;1205;47.984;7.668;2023-04-01T02:34:40;9.30;99.90
2389;DHT22;1205;47.984;7.668;2023-04-01T02:37:06;9.10;99.90
2389;DHT22;1205;47.984;7.668;2023-04-01T02:39:32;9.20;99.90
2389;DHT22;1205;47.984;7.668;2023-04-01T02:41:57;9.10;99.90
2389;DHT22;1205;47.984;7.668;2023-04-01T02:44:23;9.20;99.90
2389;DHT22;1205;47.984;7.668;2023-04-01T02:46:49;9.30;99.90
2389;DHT22;1205;47.984;7.668;2023-04-01T02:49:14;9.20;99.90
2389;DHT22;1205;47.984;7.668;2023-04-01T02:51:40;9.20;99.90
2389;DHT22;1205;47.984;7.668;2023-04-01T02:54:05;9.10;99.90
2389;DHT22;1205;47.984;7.668;2023-04-01T02:56:31;9.10;99.90
2389;DHT22;1205;47.984;7.668;2023-04-01T02:58:57;9.10;99.90
2389;DHT22;1205;47.984;7.668;2023-04-01T03:01:22;9.20;99.90
2389;DHT22;1205;47.984;7.668;2023-04-01T03:03:48;9.30;99.90
2389;DHT22;1205;47.984;7.668;2023-04-01T03:06:15;9.30;99.90
2389;DHT22;1205;47.984;7.668;2023-04-01T03:08:42;9.30;99.90
2389;DHT22;1205;47.984;7.668;2023-04-01T03:11:09;9.40;99.90
2389;DHT22;1205;47.984;7.668;2023-04-01T03:13:35;9.50;99.90
2389;DHT22;1205;47.984;7.668;2023-04-01T03:16:01;9.50;99.90
2389;DHT22;1205;47.984;7.668;2023-04-01T03:18:27;9.50;99.90
2389;DHT22;1205;47.984;7.668;2023-04-01T03:20:52;9.50;99.90
2389;DHT22;1205;47.984;7.668;2023-04-01T03:23:18;9.50;99.90
2389;DHT22;1205;47.984;7.668;2023-04-01T03:25:46;9.40;99.90
2389;DHT22;1205;47.984;7.668;2023-04-01T03:28:12;9.40;99.90
2389;DHT22;1205;47.984;7.668;2023-04-01T03:30:39;9.40;99.90
2389;DHT22;1205;47.984;7.668;2023-04-01T03:33:04;9.30;99.90
2389;DHT22;1205;47.984;7.668;2023-04-01T03:35:30;9.30;99.90
2389;DHT22;1205;47.984;7.668;2023-04-01T03:37:56;9.10;99.90
2389;DHT22;1205;47.984;7.668;2023-04-01T03:40:22;9.10;99.90
2389;DHT22;1205;47.984;7.668;2023-04-01T03:42:49;9.20;99.90
2389;DHT22;1205;47.984;7.668;2023-04-01T03:45:14;9.10;99.90
2389;DHT22;1205;47.984;7.668;2023-04-01T03:47:40;9.10;99.90
2389;DHT22;1205;47.984;7.668;2023-04-01T03:50:07;9.00;99.90
2389;DHT22;1205;47.984;7.668;2023-04-01T03:52:33;8.90;99.90
2389;DHT22;1205;47.984;7.668;2023-04-01T03:54:58;8.90;99.90
2389;DHT22;1205;47.984;7.668;2023-04-01T03:57:24;8.80;99.90
2389;DHT22;1205;47.984;7.668;2023-04-01T03:59:50;8.90;99.90
2389;DHT22;1205;47.984;7.668;2023-04-01T04:02:15;8.90;99.90
2389;DHT22;1205;47.984;7.668;2023-04-01T04:04:41;8.90;99.90
2389;DHT22;1205;47.984;7.668;2023-04-01T04:07:08;8.90;99.90
2389;DHT22;1205;47.984;7.668;2023-04-01T04:09:33;8.90;99.90
2389;DHT22;1205;47.984;7.668;2023-04-01T04:11:59;8.90;99.90
2389;DHT22;1205;47.984;7.668;2023-04-01T04:14:25;9.00;99.90
2389;DHT22;1205;47.984;7.668;2023-04-01T04:16:51;9.00;99.90
2389;DHT22;1205;47.984;7.668;2023-04-01T04:19:16;9.00;99.90
2389;DHT22;1205;47.984;7.668;2023-04-01T04:21:42;9.00;99.90
2389;DHT22;1205;47.984;7.668;2023-04-01T04:24:08;9.00;99.90
2389;DHT22;1205;47.984;7.668;2023-04-01T04:26:34;8.90;99.90
2389;DHT22;1205;47.984;7.668;2023-04-01T04:29:00;8.90;99.90
2389;DHT22;1205;47.984;7.668;2023-04-01T04:31:26;8.90;99.90
2389;DHT22;1205;47.984;7.668;2023-04-01T04:33:53;8.90;99.90
2389;DHT22;1205;47.984;7.668;2023-04-01T04:36:19;8.90;99.90
2389;DHT22;1205;47.984;7.668;2023-04-01T04:38:45;8.90;99.90
2389;DHT22;1205;47.984;7.668;2023-04-01T04:41:15;8.90;99.90
2389;DHT22;1205;47.984;7.668;2023-04-01T04:43:53;9.00;99.90
2389;DHT22;1205;47.984;7.668;2023-04-01T04:46:19;8.90;99.90
2389;DHT22;1205;47.984;7.668;2023-04-01T04:48:45;8.90;99.90
2389;DHT22;1205;47.984;7.668;2023-04-01T04:51:15;9.00;99.90
2389;DHT22;1205;47.984;7.668;2023-04-01T04:53:41;9.00;99.90
2389;DHT22;1205;47.984;7.668;2023-04-01T04:56:07;9.00;99.90
2389;DHT22;1205;47.984;7.668;2023-04-01T04:58:32;9.00;99.90
2389;DHT22;1205;47.984;7.668;2023-04-01T05:00:59;9.00;99.90
2389;DHT22;1205;47.984;7.668;2023-04-01T05:03:25;9.10;99.90
2389;DHT22;1205;47.984;7.668;2023-04-01T05:05:52;9.10;99.90
2389;DHT22;1205;47.984;7.668;2023-04-01T05:08:18;9.10;99.90
2389;DHT22;1205;47.984;7.668;2023-04-01T05:10:44;9.10;99.90
2389;DHT22;1205;47.984;7.668;2023-04-01T05:13:10;9.10;99.90
2389;DHT22;1205;47.984;7.668;2023-04-01T05:15:37;9.10;99.90
2389;DHT22;1205;47.984;7.668;2023-04-01T05:18:03;9.10;99.90
2389;DHT22;1205;47.984;7.668;2023-04-01T05:20:29;9.10;99.90
2389;DHT22;1205;47.984;7.668;2023-04-01T05:22:58;9.10;99.90
2389;DHT22;1205;47.984;7.668;2023-04-01T05:25:24;9.00;99.90
2389;DHT22;1205;47.984;7.668;2023-04-01T05:27:50;9.10;99.90
2389;DHT22;1205;47.984;7.668;2023-04-01T05:30:16;9.10;99.90
2389;DHT22;1205;47.984;7.668;2023-04-01T05:32:41;9.10;99.90
2389;DHT22;1205;47.984;7.668;2023-04-01T05:35:08;9.10;99.90
2389;DHT22;1205;47.984;7.668;2023-04-01T05:37:34;9.10;99.90
2389;DHT22;1205;47.984;7.668;2023-04-01T05:40:00;9.10;99.90
2389;DHT22;1205;47.984;7.668;2023-04-01T05:42:26;9.10;99.90
2389;DHT22;1205;47.984;7.668;2023-04-01T05:44:51;9.10;99.90
2389;DHT22;1205;47.984;7.668;2023-04-01T05:47:17;9.10;99.90
2389;DHT22;1205;47.984;7.668;2023-04-01T05:49:43;9.20;99.90
2389;DHT22;1205;47.984;7.668;2023-04-01T05:52:08;9.20;99.90
2389;DHT22;1205;47.984;7.668;2023-04-01T05:54:34;9.20;99.90
2389;DHT22;1205;47.984;7.668;2023-04-01T05:57:00;9.10;99.90
2389;DHT22;1205;47.984;7.668;2023-04-01T05:59:25;9.20;99.90
2389;DHT22;1205;47.984;7.668;2023-04-01T06:01:51;9.20;99.90
2389;DHT22;1205;47.984;7.668;2023-04-01T06:04:18;9.20;99.90
2389;DHT22;1205;47.984;7.668;2023-04-01T06:06:44;9.30;99.90
2389;DHT22;1205;47.984;7.668;2023-04-01T06:09:15;9.30;99.90
2389;DHT22;1205;47.984;7.668;2023-04-01T06:14:43;9.30;99.90
2389;DHT22;1205;47.984;7.668;2023-04-01T06:17:25;9.40;99.90
2389;DHT22;1205;47.984;7.668;2023-04-01T06:20:25;9.40;99.90
2389;DHT22;1205;47.984;7.668;2023-04-01T06:31:05;9.50;99.90
2389;DHT22;1205;47.984;7.668;2023-04-01T06:48:01;9.60;99.90
2389;DHT22;1205;47.984;7.668;2023-04-01T06:56:00;9.60;99.90
2389;DHT22;1205;47.984;7.668;2023-04-01T06:58:33;9.70;99.90
2389;DHT22;1205;47.984;7.668;2023-04-01T07:01:06;9.80;99.90
2389;DHT22;1205;47.984;7.668;2023-04-01T07:03:36;9.80;99.90
2389;DHT22;1205;47.984;7.668;2023-04-01T07:06:06;9.80;99.90
2389;DHT22;1205;47.984;7.668;2023-04-01T07:08:37;9.80;99.90
2389;DHT22;1205;47.984;7.668;2023-04-01T07:11:09;10.20;99.90
2389;DHT22;1205;47.984;7.668;2023-04-01T07:13:49;10.00;99.90
2389;DHT22;1205;47.984;7.668;2023-04-01T07:16:21;10.00;99.90
2389;DHT22;1205;47.984;7.668;2023-04-01T07:19:02;10.10;99.90
2389;DHT22;1205;47.984;7.668;2023-04-01T07:21:49;10.20;99.90
2389;DHT22;1205;47.984;7.668;2023-04-01T07:24:29;10.10;99.90
2389;DHT22;1205;47.984;7.668;2023-04-01T07:26:58;10.10;99.90
2389;DHT22;1205;47.984;7.668;2023-04-01T07:29:25;10.10;99.90
2389;DHT22;1205;47.984;7.668;2023-04-01T07:32:09;10.10;99.90
2389;DHT22;1205;47.984;7.668;2023-04-01T07:35:02;10.20;99.90
2389;DHT22;1205;47.984;7.668;2023-04-01T07:37:31;10.10;99.90
2389;DHT22;1205;47.984;7.668;2023-04-01T07:42:53;10.20;99.90
2389;DHT22;1205;47.984;7.668;2023-04-01T07:48:52;10.10;99.90
2389;DHT22;1205;47.984;7.668;2023-04-01T07:54:18;10.30;99.90
2389;DHT22;1205;47.984;7.668;2023-04-01T07:59:43;10.20;99.90
2389;DHT22;1205;47.984;7.668;2023-04-01T08:02:29;10.30;99.90
2389;DHT22;1205;47.984;7.668;2023-04-01T08:15:33;10.20;99.90
2389;DHT22;1205;47.984;7.668;2023-04-01T08:21:01;10.30;99.90
2389;DHT22;1205;47.984;7.668;2023-04-01T08:23:33;10.40;99.90
2389;DHT22;1205;47.984;7.668;2023-04-01T08:31:16;10.30;99.90
2389;DHT22;1205;47.984;7.668;2023-04-01T08:33:46;10.30;99.90
2389;DHT22;1205;47.984;7.668;2023-04-01T08:36:20;10.40;99.90
2389;DHT22;1205;47.984;7.668;2023-04-01T08:39:06;10.40;99.90
2389;DHT22;1205;47.984;7.668;2023-04-01T08:50:20;10.50;99.90
2389;DHT22;1205;47.984;7.668;2023-04-01T08:55:35;10.60;99.90
2389;DHT22;1205;47.984;7.668;2023-04-01T09:00:49;10.60;99.90
2389;DHT22;1205;47.984;7.668;2023-04-01T09:11:44;11.00;99.90
2389;DHT22;1205;47.984;7.668;2023-04-01T09:17:55;11.20;99.90
2389;DHT22;1205;47.984;7.668;2023-04-01T09:23:01;11.00;99.90
2389;DHT22;1205;47.984;7.668;2023-04-01T09:28:34;11.30;99.90
2389;DHT22;1205;47.984;7.668;2023-04-01T09:31:19;11.30;99.90
2389;DHT22;1205;47.984;7.668;2023-04-01T09:37:16;11.20;99.90
2389;DHT22;1205;47.984;7.668;2023-04-01T09:42:52;11.40;99.90
2389;DHT22;1205;47.984;7.668;2023-04-01T09:45:53;11.00;99.90
2389;DHT22;1205;47.984;7.668;2023-04-01T09:57:47;11.00;99.90
2389;DHT22;1205;47.984;7.668;2023-04-01T10:00:49;11.20;99.90
2389;DHT22;1205;47.984;7.668;2023-04-01T10:50:44;11.50;99.90
2389;DHT22;1205;47.984;7.668;2023-04-01T10:56:12;11.30;99.90
2389;DHT22;1205;47.984;7.668;2023-04-01T11:09:34;10.90;99.90
2389;DHT22;1205;47.984;7.668;2023-04-01T11:31:54;11.40;99.90
2389;DHT22;1205;47.984;7.668;2023-04-01T11:45:19;11.00;99.90
2389;DHT22;1205;47.984;7.668;2023-04-01T11:48:27;11.20;99.90
2389;DHT22;1205;47.984;7.668;2023-04-01T11:51:09;11.40;99.90
2389;DHT22;1205;47.984;7.668;2023-04-01T12:04:38;11.80;99.90
2389;DHT22;1205;47.984;7.668;2023-04-01T12:18:48;11.90;99.90
2389;DHT22;1205;47.984;7.668;2023-04-01T12:27:27;11.90;99.90
2389;DHT22;1205;47.984;7.668;2023-04-01T13:10:19;12.30;99.90
2389;DHT22;1205;47.984;7.668;2023-04-01T13:13:11;12.30;99.90
2389;DHT22;1205;47.984;7.668;2023-04-01T13:25:22;12.50;99.90
2389;DHT22;1205;47.984;7.668;2023-04-01T13:28:00;12.60;99.90
2389;DHT22;1205;47.984;7.668;2023-04-01T13:30:37;12.60;99.90
2389;DHT22;1205;47.984;7.668;2023-04-01T13:33:17;12.70;99.90
2389;DHT22;1205;47.984;7.668;2023-04-01T13:36:16;12.80;99.90
2389;DHT22;1205;47.984;7.668;2023-04-01T13:38:53;12.80;99.90
2389;DHT22;1205;47.984;7.668;2023-04-01T13:57:43;13.50;99.90
2389;DHT22;1205;47.984;7.668;2023-04-01T14:10:43;13.60;99.90
2389;DHT22;1205;47.984;7.668;2023-04-01T14:13:23;13.50;99.90
2389;DHT22;1205;47.984;7.668;2023-04-01T14:24:52;12.10;99.90
2389;DHT22;1205;47.984;7.668;2023-04-01T14:27:34;11.90;99.90
2389;DHT22;1205;47.984;7.668;2023-04-01T14:43:44;13.10;99.90
2389;DHT22;1205;47.984;7.668;2023-04-01T14:46:27;13.00;99.90
2389;DHT22;1205;47.984;7.668;2023-04-01T14:49:05;13.00;99.90
2389;DHT22;1205;47.984;7.668;2023-04-01T14:51:39;13.10;99.90
2389;DHT22;1205;47.984;7.668;2023-04-01T14:56:41;13.30;99.90
2389;DHT22;1205;47.984;7.668;2023-04-01T14:59:13;13.30;99.90
2389;DHT22;1205;47.984;7.668;2023-04-01T15:04:50;13.00;99.90
2389;DHT22;1205;47.984;7.668;2023-04-01T15:10:12;13.00;99.90
2389;DHT22;1205;47.984;7.668;2023-04-01T15:20:47;12.90;99.90
2389;DHT22;1205;47.984;7.668;2023-04-01T15:23:27;12.90;99.90
2389;DHT22;1205;47.984;7.668;2023-04-01T15:29:00;12.80;99.90
2389;DHT22;1205;47.984;7.668;2023-04-01T15:31:46;12.80;99.90
2389;DHT22;1205;47.984;7.668;2023-04-01T15:39:43;12.60;99.90
2389;DHT22;1205;47.984;7.668;2023-04-01T15:45:12;12.40;99.90
2389;DHT22;1205;47.984;7.668;2023-04-01T15:48:01;12.20;99.90
2389;DHT22;1205;47.984;7.668;2023-04-01T15:55:59;12.20;99.90
2389;DHT22;1205;47.984;7.668;2023-04-01T16:01:32;12.40;99.90
2389;DHT22;1205;47.984;7.668;2023-04-01T16:04:17;12.60;99.90
2389;DHT22;1205;47.984;7.668;2023-04-01T16:07:03;12.70;99.90
2389;DHT22;1205;47.984;7.668;2023-04-01T16:15:37;12.50;99.90
2389;DHT22;1205;47.984;7.668;2023-04-01T16:21:07;12.40;99.90
2389;DHT22;1205;47.984;7.668;2023-04-01T16:23:56;12.30;99.90
2389;DHT22;1205;47.984;7.668;2023-04-01T16:26:55;12.50;99.90
2389;DHT22;1205;47.984;7.668;2023-04-01T16:29:45;12.60;99.90
2389;DHT22;1205;47.984;7.668;2023-04-01T16:35:05;12.80;99.90
2389;DHT22;1205;47.984;7.668;2023-04-01T16:37:54;12.50;99.90
2389;DHT22;1205;47.984;7.668;2023-04-01T16:43:25;12.40;99.90
2389;DHT22;1205;47.984;7.668;2023-04-01T16:45:57;12.40;99.90
2389;DHT22;1205;47.984;7.668;2023-04-01T16:48:36;12.50;99.90
2389;DHT22;1205;47.984;7.668;2023-04-01T16:51:15;12.60;99.90
2389;DHT22;1205;47.984;7.668;2023-04-01T16:53:42;12.60;99.90
2389;DHT22;1205;47.984;7.668;2023-04-01T16:56:24;12.50;99.90
2389;DHT22;1205;47.984;7.668;2023-04-01T16:59:19;12.60;99.90
2389;DHT22;1205;47.984;7.668;2023-04-01T17:01:57;12.70;99.90
2389;DHT22;1205;47.984;7.668;2023-04-01T17:04:41;12.70;99.90
2389;DHT22;1205;47.984;7.668;2023-04-01T17:13:31;12.90;99.90
2389;DHT22;1205;47.984;7.668;2023-04-01T17:16:27;13.00;99.90
2389;DHT22;1205;47.984;7.668;2023-04-01T17:24:58;12.90;99.90
2389;DHT22;1205;47.984;7.668;2023-04-01T17:27:52;12.80;99.90
2389;DHT22;1205;47.984;7.668;2023-04-01T17:30:33;12.70;99.90
2389;DHT22;1205;47.984;7.668;2023-04-01T17:41:32;12.30;99.90
2389;DHT22;1205;47.984;7.668;2023-04-01T17:54:43;11.80;99.90
2389;DHT22;1205;47.984;7.668;2023-04-01T17:57:46;11.70;99.90
2389;DHT22;1205;47.984;7.668;2023-04-01T18:00:47;11.70;99.90
2389;DHT22;1205;47.984;7.668;2023-04-01T18:06:17;11.50;99.90
2389;DHT22;1205;47.984;7.668;2023-04-01T18:22:18;10.90;99.90
2389;DHT22;1205;47.984;7.668;2023-04-01T18:25:02;10.90;99.90
2389;DHT22;1205;47.984;7.668;2023-04-01T18:27:36;10.80;99.90
2389;DHT22;1205;47.984;7.668;2023-04-01T18:30:21;10.70;99.90
2389;DHT22;1205;47.984;7.668;2023-04-01T18:33:03;10.70;99.90
2389;DHT22;1205;47.984;7.668;2023-04-01T18:35:34;10.60;99.90
2389;DHT22;1205;47.984;7.668;2023-04-01T18:38:25;10.60;99.90
2389;DHT22;1205;47.984;7.668;2023-04-01T18:41:13;10.50;99.90
2389;DHT22;1205;47.984;7.668;2023-04-01T18:43:59;10.40;99.90
2389;DHT22;1205;47.984;7.668;2023-04-01T18:46:39;10.30;99.90
2389;DHT22;1205;47.984;7.668;2023-04-01T18:51:51;10.20;99.90
2389;DHT22;1205;47.984;7.668;2023-04-01T18:54:30;10.20;99.90
2389;DHT22;1205;47.984;7.668;2023-04-01T18:57:18;10.20;99.90
2389;DHT22;1205;47.984;7.668;2023-04-01T18:59:52;10.10;99.90
2389;DHT22;1205;47.984;7.668;2023-04-01T19:05:12;10.00;99.90
2389;DHT22;1205;47.984;7.668;2023-04-01T19:07:53;10.00;99.90
2389;DHT22;1205;47.984;7.668;2023-04-01T19:10:40;10.00;99.90
2389;DHT22;1205;47.984;7.668;2023-04-01T19:13:21;10.00;99.90
2389;DHT22;1205;47.984;7.668;2023-04-01T19:16:04;9.90;99.90
2389;DHT22;1205;47.984;7.668;2023-04-01T19:21:07;9.80;99.90
2389;DHT22;1205;47.984;7.668;2023-04-01T19:23:57;9.80;99.90
2389;DHT22;1205;47.984;7.668;2023-04-01T19:35:13;9.60;99.90
2389;DHT22;1205;47.984;7.668;2023-04-01T19:41:41;9.70;99.90
2389;DHT22;1205;47.984;7.668;2023-04-01T19:57:28;9.50;99.90
2389;DHT22;1205;47.984;7.668;2023-04-01T20:00:06;9.50;99.90
2389;DHT22;1205;47.984;7.668;2023-04-01T20:02:35;9.40;99.90
2389;DHT22;1205;47.984;7.668;2023-04-01T20:05:26;9.30;99.90
2389;DHT22;1205;47.984;7.668;2023-04-01T20:08:25;9.30;99.90
2389;DHT22;1205;47.984;7.668;2023-04-01T20:16:20;9.20;99.90
2389;DHT22;1205;47.984;7.668;2023-04-01T20:18:58;9.20;99.90
2389;DHT22;1205;47.984;7.668;2023-04-01T20:21:45;9.20;99.90
2389;DHT22;1205;47.984;7.668;2023-04-01T20:24:20;9.20;99.90
2389;DHT22;1205;47.984;7.668;2023-04-01T20:27:14;9.10;99.90
2389;DHT22;1205;47.984;7.668;2023-04-01T20:37:48;9.20;99.90
2389;DHT22;1205;47.984;7.668;2023-04-01T20:40:37;9.20;99.90
2389;DHT22;1205;47.984;7.668;2023-04-01T20:49:14;9.30;99.90
2389;DHT22;1205;47.984;7.668;2023-04-01T20:57:25;9.40;99.90
2389;DHT22;1205;47.984;7.668;2023-04-01T20:59:59;9.40;99.90
2389;DHT22;1205;47.984;7.668;2023-04-01T21:05:30;9.50;99.90
2389;DHT22;1205;47.984;7.668;2023-04-01T21:08:17;9.50;99.90
2389;DHT22;1205;47.984;7.668;2023-04-01T21:19:32;9.70;99.90
2389;DHT22;1205;47.984;7.668;2023-04-01T21:25:01;9.70;99.90
2389;DHT22;1205;47.984;7.668;2023-04-01T21:27:59;9.70;99.90
2389;DHT22;1205;47.984;7.668;2023-04-01T21:44:53;9.70;99.90
2389;DHT22;1205;47.984;7.668;2023-04-01T21:56:03;9.60;99.90
2389;DHT22;1205;47.984;7.668;2023-04-01T22:07:20;9.50;99.90
2389;DHT22;1205;47.984;7.668;2023-04-01T22:09:54;9.50;99.90
2389;DHT22;1205;47.984;7.668;2023-04-01T22:12:33;9.50;99.90
2389;DHT22;1205;47.984;7.668;2023-04-01T22:17:36;9.50;99.90
2389;DHT22;1205;47.984;7.668;2023-04-01T22:20:35;9.50;99.90
2389;DHT22;1205;47.984;7.668;2023-04-01T22:23:20;9.50;99.90
2389;DHT22;1205;47.984;7.668;2023-04-01T22:26:13;9.50;99.90
2389;DHT22;1205;47.984;7.668;2023-04-01T22:28:46;9.50;99.90
2389;DHT22;1205;47.984;7.668;2023-04-01T22:31:19;9.50;99.90
2389;DHT22;1205;47.984;7.668;2023-04-01T22:34:08;9.50;99.90
2389;DHT22;1205;47.984;7.668;2023-04-01T22:36:58;9.50;99.90
2389;DHT22;1205;47.984;7.668;2023-04-01T22:39:50;9.40;99.90
2389;DHT22;1205;47.984;7.668;2023-04-01T22:42:43;9.40;99.90
2389;DHT22;1205;47.984;7.668;2023-04-01T22:50:22;9.20;99.90
2389;DHT22;1205;47.984;7.668;2023-04-01T22:52:58;9.20;99.90
2389;DHT22;1205;47.984;7.668;2023-04-01T22:55:33;9.20;99.90
2389;DHT22;1205;47.984;7.668;2023-04-01T22:58:05;9.30;99.90
2389;DHT22;1205;47.984;7.668;2023-04-01T23:00:39;9.20;99.90
2389;DHT22;1205;47.984;7.668;2023-04-01T23:05:51;9.30;99.90
2389;DHT22;1205;47.984;7.668;2023-04-01T23:11:18;9.40;99.90
2389;DHT22;1205;47.984;7.668;2023-04-01T23:13:49;9.40;99.90
2389;DHT22;1205;47.984;7.668;2023-04-01T23:16:21;9.40;99.90
2389;DHT22;1205;47.984;7.668;2023-04-01T23:24:15;9.40;99.90
2389;DHT22;1205;47.984;7.668;2023-04-01T23:29:16;9.50;99.90
2389;DHT22;1205;47.984;7.668;2023-04-01T23:31:45;9.60;99.90
2389;DHT22;1205;47.984;7.668;2023-04-01T23:36:46;9.50;99.90
2389;DHT22;1205;47.984;7.668;2023-04-01T23:39:34;9.60;99.90
2389;DHT22;1205;47.984;7.668;2023-04-01T23:42:06;9.60;99.90
2389;DHT22;1205;47.984;7.668;2023-04-01T23:44:32;9.50;99.90
2389;DHT22;1205;47.984;7.668;2023-04-01T23:47:00;9.50;99.90
2389;DHT22;1205;47.984;7.668;2023-04-01T23:50:01;9.50;99.90
2389;DHT22;1205;47.984;7.668;2023-04-01T23:52:29;9.50;99.90
2389;DHT22;1205;47.984;7.668;2023-04-01T23:54:59;9.50;99.90
2389;DHT22;1205;47.984;7.668;2023-04-01T23:57:34;9.50;99.90
